createdAt,value
2023-03-19T00:01:32.579Z,11.61
2023-03-19T00:05:35.917Z,11.57
2023-03-19T00:09:40.769Z,11.50
2023-03-19T00:13:43.826Z,11.40
2023-03-19T00:17:47.075Z,11.36
2023-03-19T00:21:50.272Z,11.32
2023-03-19T00:25:54.930Z,11.17
2023-03-19T00:29:57.899Z,11.09
2023-03-19T00:34:01.444Z,10.99
2023-03-19T00:38:04.786Z,10.94
2023-03-19T00:42:09.857Z,10.90
2023-03-19T00:46:12.920Z,10.99
2023-03-19T00:50:18.632Z,11.09
2023-03-19T00:54:22.064Z,11.18
2023-03-19T00:58:26.544Z,11.29
2023-03-19T01:02:29.654Z,11.30
2023-03-19T01:06:33.236Z,11.22
2023-03-19T01:10:36.289Z,11.28
2023-03-19T01:14:42.631Z,11.30
2023-03-19T01:18:46.002Z,11.29
2023-03-19T01:22:49.118Z,11.27
2023-03-19T01:26:52.119Z,11.26
2023-03-19T01:31:09.995Z,11.32
2023-03-19T01:35:30.483Z,11.40
2023-03-19T01:39:34.000Z,11.53
2023-03-19T01:43:41.136Z,11.61
2023-03-19T01:48:06.905Z,11.64
2023-03-19T01:52:28.031Z,11.68
2023-03-19T01:56:44.476Z,11.74
2023-03-19T02:00:53.536Z,11.80
2023-03-19T02:05:02.264Z,11.88
2023-03-19T02:09:07.818Z,11.94
2023-03-19T02:13:11.815Z,12.02
2023-03-19T02:17:14.879Z,12.04
2023-03-19T02:21:21.185Z,12.02
2023-03-19T02:25:32.142Z,12.15
2023-03-19T02:29:36.582Z,12.11
2023-03-19T02:33:40.668Z,12.12
2023-03-19T02:37:43.691Z,12.08
2023-03-19T02:41:48.162Z,12.10
2023-03-19T02:45:54.073Z,12.09
2023-03-19T02:49:58.677Z,11.97
2023-03-19T02:54:02.039Z,11.91
2023-03-19T02:58:05.122Z,11.86
2023-03-19T03:02:10.251Z,11.74
2023-03-19T03:06:14.306Z,11.61
2023-03-19T03:10:18.256Z,11.52
2023-03-19T03:14:21.646Z,11.50
2023-03-19T03:18:27.085Z,11.49
2023-03-19T03:22:30.535Z,11.47
2023-03-19T03:26:34.799Z,11.46
2023-03-19T03:30:38.220Z,11.46
2023-03-19T03:34:42.863Z,11.46
2023-03-19T03:38:46.511Z,11.48
2023-03-19T03:42:49.607Z,11.48
2023-03-19T03:46:53.343Z,11.46
2023-03-19T03:50:57.763Z,11.49
2023-03-19T03:55:03.912Z,11.45
2023-03-19T03:59:07.567Z,11.41
2023-03-19T04:03:10.669Z,11.44
2023-03-19T04:07:15.257Z,11.40
2023-03-19T04:11:23.368Z,11.42
2023-03-19T04:15:26.629Z,11.46
2023-03-19T04:19:32.754Z,11.44
2023-03-19T04:23:37.146Z,11.41
2023-03-19T04:27:40.413Z,11.22
2023-03-19T04:31:45.436Z,11.02
2023-03-19T04:35:49.786Z,10.84
2023-03-19T04:39:54.494Z,10.68
2023-03-19T04:43:57.908Z,10.52
2023-03-19T04:48:01.636Z,10.46
2023-03-19T04:52:06.749Z,10.37
2023-03-19T04:56:11.381Z,10.35
2023-03-19T05:00:16.288Z,10.35
2023-03-19T05:04:21.669Z,10.34
2023-03-19T05:08:25.806Z,10.35
2023-03-19T05:12:30.158Z,10.36
2023-03-19T05:16:35.674Z,10.37
2023-03-19T05:20:39.351Z,10.38
2023-03-19T05:24:51.736Z,10.38
2023-03-19T05:28:56.620Z,10.43
2023-03-19T05:33:09.460Z,10.44
2023-03-19T05:37:21.765Z,10.46
2023-03-19T05:41:31.392Z,10.50
2023-03-19T05:45:40.448Z,10.49
2023-03-19T05:49:54.168Z,10.49
2023-03-19T05:53:57.194Z,10.52
2023-03-19T05:58:03.256Z,10.52
2023-03-19T06:02:08.499Z,10.51
2023-03-19T06:06:13.380Z,10.48
2023-03-19T06:10:20.735Z,10.51
2023-03-19T06:14:27.703Z,10.51
2023-03-19T06:18:52.324Z,10.53
2023-03-19T06:22:56.024Z,10.52
2023-03-19T06:26:59.129Z,10.54
2023-03-19T06:31:02.772Z,10.55
2023-03-19T06:35:30.218Z,10.58
2023-03-19T06:39:33.335Z,10.65
2023-03-19T06:43:37.337Z,10.83
2023-03-19T06:47:42.078Z,10.90
2023-03-19T06:51:46.448Z,11.05
2023-03-19T06:55:49.679Z,11.03
2023-03-19T06:59:52.740Z,11.03
2023-03-19T07:03:55.940Z,11.02
2023-03-19T07:08:00.613Z,11.12
2023-03-19T07:12:04.074Z,11.22
2023-03-19T07:16:07.675Z,11.34
2023-03-19T07:20:12.463Z,11.34
2023-03-19T07:24:16.854Z,11.35
2023-03-19T07:28:19.927Z,11.45
2023-03-19T07:32:23.506Z,11.55
2023-03-19T07:36:26.700Z,11.71
2023-03-19T07:40:31.537Z,11.72
2023-03-19T07:44:34.944Z,11.84
2023-03-19T07:48:38.240Z,11.85
2023-03-19T07:52:41.243Z,11.78
2023-03-19T07:56:45.532Z,11.59
2023-03-19T08:00:48.588Z,11.55
2023-03-19T08:04:51.653Z,11.38
2023-03-19T08:08:54.610Z,11.24
2023-03-19T08:12:58.941Z,11.25
2023-03-19T08:17:02.141Z,11.40
2023-03-19T08:21:05.803Z,11.42
2023-03-19T08:25:10.706Z,11.53
2023-03-19T08:29:17.300Z,11.51
2023-03-19T08:33:21.673Z,11.83
2023-03-19T08:37:24.701Z,12.18
2023-03-19T08:41:27.734Z,12.36
2023-03-19T08:45:32.167Z,12.91
2023-03-19T08:49:35.549Z,13.64
2023-03-19T08:53:39.211Z,13.60
2023-03-19T08:57:42.228Z,13.47
2023-03-19T09:01:47.264Z,13.81
2023-03-19T09:05:50.623Z,13.62
2023-03-19T09:09:53.703Z,13.50
2023-03-19T09:13:56.805Z,13.17
2023-03-19T09:18:01.156Z,13.13
2023-03-19T09:22:05.456Z,13.55
2023-03-19T09:26:08.487Z,13.51
2023-03-19T09:30:12.937Z,14.67
2023-03-19T09:34:17.366Z,14.89
2023-03-19T09:38:21.713Z,15.07
2023-03-19T09:42:42.118Z,15.11
2023-03-19T09:46:51.087Z,14.61
2023-03-19T09:50:57.615Z,14.20
2023-03-19T09:55:11.200Z,15.28
2023-03-19T09:59:14.295Z,15.71
2023-03-19T10:03:33.700Z,15.67
2023-03-19T10:08:06.069Z,15.70
2023-03-19T10:12:21.652Z,14.91
2023-03-19T10:16:27.324Z,14.19
2023-03-19T10:20:37.325Z,14.19
2023-03-19T10:24:45.560Z,14.24
2023-03-19T10:29:00.422Z,13.97
2023-03-19T10:33:17.869Z,14.15
2023-03-19T10:37:22.789Z,14.18
2023-03-19T10:41:39.279Z,13.96
2023-03-19T10:45:42.596Z,14.24
2023-03-19T10:49:46.179Z,14.39
2023-03-19T10:53:49.383Z,14.73
2023-03-19T10:58:03.243Z,15.09
2023-03-19T11:02:19.409Z,14.97
2023-03-19T11:06:27.476Z,15.09
2023-03-19T11:10:32.340Z,15.41
2023-03-19T11:14:40.256Z,16.26
2023-03-19T11:18:43.299Z,16.98
2023-03-19T11:22:47.188Z,18.30
2023-03-19T11:26:56.525Z,19.24
2023-03-19T11:31:06.542Z,16.65
2023-03-19T11:35:16.070Z,16.23
2023-03-19T11:39:28.550Z,16.47
2023-03-19T11:43:45.584Z,17.26
2023-03-19T11:48:00.719Z,17.83
2023-03-19T11:52:13.201Z,17.77
2023-03-19T11:56:24.242Z,16.37
2023-03-19T12:00:33.941Z,16.59
2023-03-19T12:05:09.278Z,15.89
2023-03-19T12:09:21.191Z,15.61
2023-03-19T12:13:35.835Z,16.77
2023-03-19T12:17:47.817Z,16.18
2023-03-19T12:22:03.959Z,16.17
2023-03-19T12:26:09.724Z,16.76
2023-03-19T12:30:18.842Z,15.69
2023-03-19T12:34:30.567Z,15.09
2023-03-19T12:38:40.363Z,14.70
2023-03-19T12:42:43.988Z,14.51
2023-03-19T12:46:53.627Z,14.42
2023-03-19T12:51:01.085Z,14.34
2023-03-19T12:55:17.718Z,14.38
2023-03-19T12:59:30.936Z,14.21
2023-03-19T13:03:42.981Z,14.21
2023-03-19T13:07:53.966Z,14.53
2023-03-19T13:12:02.696Z,14.62
2023-03-19T13:16:17.261Z,14.58
2023-03-19T13:20:25.264Z,14.55
2023-03-19T13:24:30.386Z,14.85
2023-03-19T13:28:37.534Z,15.05
2023-03-19T13:32:44.061Z,15.38
2023-03-19T13:36:52.696Z,15.99
2023-03-19T13:40:57.575Z,16.78
2023-03-19T13:45:05.715Z,18.00
2023-03-19T13:49:29.570Z,18.05
2023-03-19T13:53:42.570Z,17.97
2023-03-19T13:58:01.855Z,17.23
2023-03-19T14:02:54.253Z,17.15
2023-03-19T14:06:59.349Z,17.19
2023-03-19T14:11:05.864Z,16.79
2023-03-19T14:15:18.234Z,16.00
2023-03-19T14:19:22.787Z,16.06
2023-03-19T14:23:39.582Z,15.93
2023-03-19T14:27:48.300Z,16.16
2023-03-19T14:31:53.513Z,15.88
2023-03-19T14:35:59.813Z,15.65
2023-03-19T14:40:12.255Z,15.70
2023-03-19T14:44:45.236Z,15.37
2023-03-19T14:49:23.143Z,15.33
2023-03-19T14:53:38.272Z,15.17
2023-03-19T14:57:41.377Z,15.41
2023-03-19T15:01:49.593Z,15.07
2023-03-19T15:05:58.145Z,15.09
2023-03-19T15:10:06.534Z,15.29
2023-03-19T15:14:26.043Z,15.28
2023-03-19T15:18:29.739Z,15.44
2023-03-19T15:22:35.214Z,15.32
2023-03-19T15:26:39.740Z,15.16
2023-03-19T15:30:54.909Z,14.89
2023-03-19T15:35:05.625Z,14.61
2023-03-19T15:39:12.671Z,14.30
2023-03-19T15:43:17.243Z,14.08
2023-03-19T15:47:24.435Z,13.95
2023-03-19T15:51:28.494Z,13.87
2023-03-19T15:55:31.592Z,13.95
2023-03-19T15:59:36.333Z,14.00
2023-03-19T16:03:42.747Z,14.20
2023-03-19T16:07:46.818Z,14.67
2023-03-19T16:11:49.990Z,16.24
2023-03-19T16:16:03.374Z,16.33
2023-03-19T16:20:07.492Z,16.14
2023-03-19T16:24:20.152Z,15.51
2023-03-19T16:28:24.030Z,14.53
2023-03-19T16:32:29.991Z,14.22
2023-03-19T16:36:34.027Z,14.25
2023-03-19T16:40:45.961Z,14.03
2023-03-19T16:44:49.633Z,14.01
2023-03-19T16:48:53.997Z,13.97
2023-03-19T16:52:58.371Z,13.92
2023-03-19T16:57:01.773Z,13.86
2023-03-19T17:01:06.911Z,13.80
2023-03-19T17:05:16.102Z,13.71
2023-03-19T17:09:19.253Z,13.64
2023-03-19T17:13:28.119Z,13.62
2023-03-19T17:17:31.198Z,13.59
2023-03-19T17:21:35.975Z,13.53
2023-03-19T17:25:39.325Z,13.51
2023-03-19T17:29:42.656Z,13.39
2023-03-19T17:33:45.865Z,13.29
2023-03-19T17:37:51.543Z,13.25
2023-03-19T17:41:54.906Z,13.16
2023-03-19T17:45:58.023Z,13.00
2023-03-19T17:50:01.248Z,12.89
2023-03-19T17:54:11.685Z,12.74
2023-03-19T17:58:17.991Z,12.50
2023-03-19T18:02:26.527Z,12.38
2023-03-19T18:06:35.142Z,12.29
2023-03-19T18:10:39.505Z,12.19
2023-03-19T18:14:42.707Z,12.16
2023-03-19T18:18:46.195Z,12.13
2023-03-19T18:22:49.476Z,11.94
2023-03-19T18:26:54.006Z,11.85
2023-03-19T18:30:57.395Z,11.89
2023-03-19T18:35:00.736Z,11.80
2023-03-19T18:39:04.100Z,11.68
2023-03-19T18:43:10.656Z,11.65
2023-03-19T18:47:16.232Z,11.50
2023-03-19T18:51:19.396Z,11.50
2023-03-19T18:55:29.036Z,11.44
2023-03-19T18:59:34.940Z,11.39
2023-03-19T19:03:38.470Z,11.31
2023-03-19T19:07:41.503Z,11.28
2023-03-19T19:11:48.154Z,11.32
2023-03-19T19:15:53.903Z,11.26
2023-03-19T19:19:57.297Z,11.23
2023-03-19T19:24:00.396Z,11.24
2023-03-19T19:28:06.217Z,11.22
2023-03-19T19:32:20.255Z,11.26
2023-03-19T19:36:24.801Z,11.17
2023-03-19T19:40:31.662Z,11.09
2023-03-19T19:44:34.770Z,10.99
2023-03-19T19:48:40.300Z,11.00
2023-03-19T19:52:43.613Z,10.78
2023-03-19T19:56:46.721Z,10.75
2023-03-19T20:01:02.215Z,10.68
2023-03-19T20:05:08.227Z,10.36
2023-03-19T20:09:11.567Z,10.38
2023-03-19T20:13:25.019Z,10.25
2023-03-19T20:17:28.218Z,10.10
2023-03-19T20:21:32.634Z,10.05
2023-03-19T20:25:37.788Z,9.92
2023-03-19T20:29:41.599Z,9.81
2023-03-19T20:33:44.753Z,9.86
2023-03-19T20:37:49.250Z,9.89
2023-03-19T20:41:52.502Z,9.78
2023-03-19T20:45:57.212Z,9.79
2023-03-19T20:50:01.187Z,9.72
2023-03-19T20:54:06.200Z,9.64
2023-03-19T20:58:17.478Z,9.62
2023-03-19T21:02:22.189Z,9.52
2023-03-19T21:06:26.149Z,9.47
2023-03-19T21:10:33.281Z,9.42
2023-03-19T21:14:36.354Z,9.42
2023-03-19T21:18:39.375Z,9.40
2023-03-19T21:22:42.854Z,9.32
2023-03-19T21:26:47.753Z,9.33
2023-03-19T21:30:50.866Z,9.35
2023-03-19T21:34:54.264Z,9.32
2023-03-19T21:38:57.757Z,9.11
2023-03-19T21:43:03.972Z,9.12
2023-03-19T21:47:07.583Z,9.10
2023-03-19T21:51:14.521Z,9.24
2023-03-19T21:55:20.937Z,9.14
2023-03-19T21:59:31.768Z,9.16
2023-03-19T22:03:35.499Z,9.15
2023-03-19T22:07:38.743Z,9.10
2023-03-19T22:11:43.207Z,9.04
2023-03-19T22:15:47.600Z,9.00
2023-03-19T22:19:50.928Z,8.95
2023-03-19T22:23:54.804Z,8.98
2023-03-19T22:27:58.665Z,9.01
2023-03-19T22:32:03.433Z,9.08
2023-03-19T22:36:07.124Z,9.17
2023-03-19T22:40:12.751Z,9.18
2023-03-19T22:44:24.439Z,9.10
2023-03-19T22:48:29.301Z,9.05
2023-03-19T22:52:32.329Z,9.13
2023-03-19T22:56:35.347Z,9.10
2023-03-19T23:00:38.468Z,9.17
2023-03-19T23:04:42.998Z,9.19
2023-03-19T23:08:46.540Z,9.15
2023-03-19T23:12:49.887Z,9.14
2023-03-19T23:16:53.632Z,9.12
2023-03-19T23:20:58.709Z,9.10
2023-03-19T23:25:01.755Z,9.10
2023-03-19T23:29:07.357Z,9.11
2023-03-19T23:33:11.993Z,9.09
2023-03-19T23:37:16.739Z,9.12
2023-03-19T23:41:23.402Z,9.13
2023-03-19T23:45:32.722Z,9.08
2023-03-19T23:49:36.405Z,9.10
2023-03-19T23:53:41.494Z,8.98
2023-03-19T23:57:44.651Z,9.06
